Time;durP1;ratioP1;P1;durP2;ratioP2;P2;SDS_P1;SDS_P2;PMS_P1;PMS_P2;Temp;Humidity;BMP_temperature;BMP_pressure;BME280_temperature;BME280_humidity;BME280_pressure;Samples;Min_cycle;Max_cycle;Signal;HPM_P1;HPM_P2
2023/06/10 00:01:48;;;;;;;8.45;7.80;;;;;;;15.72;100.00;97000.34;5078688;28;20025;-71
2023/06/10 00:04:14;;;;;;;8.52;7.93;;;;;;;15.74;100.00;97001.06;5074445;28;20021;-71
2023/06/10 00:06:40;;;;;;;9.35;8.63;;;;;;;15.91;100.00;97006.66;5090323;28;20535;-72
2023/06/10 00:09:09;;;;;;;8.20;7.40;;;;;;;15.80;100.00;97012.94;5075071;28;20427;-72
2023/06/10 00:11:35;;;;;;;9.07;8.48;;;;;;;15.76;100.00;97022.97;5086886;28;20075;-72
2023/06/10 00:14:01;;;;;;;9.15;8.45;;;;;;;15.70;100.00;97028.88;5077148;28;20103;-72
2023/06/10 00:16:27;;;;;;;9.48;8.77;;;;;;;15.66;100.00;97016.88;5080621;28;20085;-72
2023/06/10 00:18:55;;;;;;;10.05;9.15;;;;;;;15.68;100.00;97014.91;5074111;28;20127;-72
2023/06/10 00:21:21;;;;;;;9.20;8.30;;;;;;;15.73;100.00;97028.59;5086104;28;20408;-72
2023/06/10 00:23:46;;;;;;;9.23;8.30;;;;;;;15.72;100.00;97037.53;5087258;28;20035;-72
2023/06/10 00:26:12;;;;;;;9.70;8.75;;;;;;;15.69;100.00;97026.34;5078498;28;20055;-72
2023/06/10 00:28:37;;;;;;;9.13;8.30;;;;;;;15.65;100.00;97031.13;5079915;28;20028;-71
2023/06/10 00:31:04;;;;;;;8.70;8.05;;;;;;;15.68;100.00;97029.97;5073551;28;20028;-72
2023/06/10 00:33:29;;;;;;;7.82;7.15;;;;;;;15.71;100.00;97024.41;5083223;28;20039;-72
2023/06/10 00:35:55;;;;;;;7.72;7.13;;;;;;;15.65;100.00;97028.47;5076870;28;20025;-72
2023/06/10 00:38:20;;;;;;;6.65;6.15;;;;;;;15.60;100.00;97005.00;5092148;28;20020;-72
2023/06/10 00:40:45;;;;;;;7.28;6.68;;;;;;;15.59;100.00;97000.66;5078279;28;20170;-72
2023/06/10 00:43:11;;;;;;;6.97;6.38;;;;;;;15.55;100.00;97004.59;5094060;28;20502;-72
2023/06/10 00:45:37;;;;;;;6.72;6.20;;;;;;;15.54;100.00;96999.41;5080396;28;20476;-72
2023/06/10 00:48:03;;;;;;;7.03;6.43;;;;;;;15.53;100.00;97009.19;5095014;28;20117;-72
2023/06/10 00:50:30;;;;;;;6.63;6.10;;;;;;;15.49;100.00;97013.13;5090868;28;20051;-71
2023/06/10 00:52:56;;;;;;;7.03;5.90;;;;;;;15.38;100.00;97011.44;5082226;28;20032;-72
2023/06/10 00:55:23;;;;;;;6.93;6.38;;;;;;;15.35;100.00;97017.00;5090945;28;20038;-72
2023/06/10 00:57:49;;;;;;;7.15;6.18;;;;;;;15.36;100.00;97021.31;5077307;28;20029;-72
2023/06/10 01:00:15;;;;;;;6.35;5.85;;;;;;;15.33;100.00;97018.97;5078694;28;20028;-72
2023/06/10 01:02:41;;;;;;;7.88;7.28;;;;;;;15.30;100.00;97024.53;5078406;28;20427;-72
2023/06/10 01:05:09;;;;;;;6.60;6.18;;;;;;;15.26;100.00;97026.66;5083162;28;20106;-72
2023/06/10 01:07:47;;;;;;;6.05;5.53;;;;;;;15.17;100.00;97038.94;5088508;28;20434;-72
2023/06/10 01:10:30;;;;;;;6.13;5.68;;;;;;;15.10;100.00;97048.41;5088659;28;20111;-72
2023/06/10 01:13:02;;;;;;;5.72;5.30;;;;;;;15.00;100.00;97044.91;5084835;28;20024;-72
2023/06/10 01:15:31;;;;;;;5.88;5.38;;;;;;;14.89;100.00;97046.69;5078644;28;20525;-72
2023/06/10 01:18:04;;;;;;;5.97;5.47;;;;;;;14.90;100.00;97047.53;5078087;28;20064;-72
2023/06/10 01:20:31;;;;;;;5.32;4.82;;;;;;;14.90;100.00;97043.06;5082231;28;20082;-72
2023/06/10 01:22:58;;;;;;;5.47;5.07;;;;;;;14.88;100.00;97041.53;5076671;28;20468;-72
2023/06/10 01:25:28;;;;;;;7.80;5.32;;;;;;;14.80;100.00;97042.19;5086650;28;20081;-72
2023/06/10 01:28:26;;;;;;;8.52;5.18;;;;;;;14.73;100.00;97038.41;5084061;28;20051;-72
2023/06/10 01:31:04;;;;;;;5.88;5.40;;;;;;;14.71;100.00;97045.69;5082743;28;20028;-72
2023/06/10 01:33:33;;;;;;;5.90;5.50;;;;;;;14.64;100.00;97047.13;5088730;28;20035;-71
2023/06/10 01:36:01;;;;;;;6.00;5.45;;;;;;;14.57;100.00;97041.53;5079829;28;20036;-72
2023/06/10 01:38:27;;;;;;;7.28;5.63;;;;;;;14.57;100.00;97046.81;5069734;28;20123;-72
2023/06/10 01:40:54;;;;;;;5.82;5.18;;;;;;;14.57;100.00;97046.81;5084886;28;20059;-72
2023/06/10 01:43:21;;;;;;;5.82;5.40;;;;;;;14.54;100.00;97053.25;5092797;28;20124;-71
2023/06/10 01:45:46;;;;;;;5.80;5.30;;;;;;;14.55;100.00;97054.91;5094031;28;20468;-72
2023/06/10 01:48:12;;;;;;;6.28;5.68;;;;;;;14.59;100.00;97050.22;5088748;28;20013;-72
2023/06/10 01:50:37;;;;;;;6.50;5.72;;;;;;;14.59;100.00;97056.34;5079377;28;20028;-72
2023/06/10 01:53:04;;;;;;;6.00;5.50;;;;;;;14.59;100.00;97063.47;5089458;28;20103;-72
2023/06/10 01:55:29;;;;;;;6.03;5.63;;;;;;;14.57;100.00;97066.22;5083133;28;20308;-72
2023/06/10 01:57:55;;;;;;;5.45;5.07;;;;;;;14.57;100.00;97063.56;5087156;28;20036;-72
2023/06/10 02:00:20;;;;;;;6.13;5.57;;;;;;;14.58;100.00;97072.34;5088110;28;20031;-72
2023/06/10 02:02:45;;;;;;;6.22;5.82;;;;;;;14.52;100.00;97080.84;5084504;28;20054;-72
2023/06/10 02:05:11;;;;;;;7.75;6.95;;;;;;;14.48;100.00;97080.28;5080443;28;20531;-72
2023/06/10 02:07:36;;;;;;;6.97;6.18;;;;;;;14.52;100.00;97087.00;5097656;28;20490;-72
2023/06/10 02:10:02;;;;;;;6.38;5.88;;;;;;;14.53;100.00;97088.66;5092319;28;20529;-72
2023/06/10 02:12:27;;;;;;;6.68;5.97;;;;;;;14.45;100.00;97085.81;5093862;28;20028;-72
2023/06/10 02:14:53;;;;;;;7.68;6.07;;;;;;;14.40;100.00;97085.38;5082608;28;20035;-71
2023/06/10 02:17:19;;;;;;;7.30;6.32;;;;;;;14.35;100.00;97085.78;5085828;28;20025;-71
2023/06/10 02:19:52;;;;;;;8.07;6.40;;;;;;;14.34;100.00;97081.44;5097066;28;20032;-71
2023/06/10 02:22:20;;;;;;;14.77;7.28;;;;;;;14.35;100.00;97085.78;5094068;28;20025;-71
2023/06/10 02:24:45;;;;;;;6.93;6.30;;;;;;;14.38;100.00;97076.72;5086899;28;20594;-72
2023/06/10 02:27:11;;;;;;;7.90;7.30;;;;;;;14.39;100.00;97081.06;5078108;28;20477;-72
2023/06/10 02:29:36;;;;;;;8.35;7.55;;;;;;;14.38;100.00;97082.03;5081384;28;20030;-71
2023/06/10 02:32:03;;;;;;;9.27;8.45;;;;;;;14.43;100.00;97091.28;5095572;28;20059;-71
2023/06/10 02:34:29;;;;;;;9.45;8.45;;;;;;;14.41;100.00;97079.13;5078200;28;20025;-72
2023/06/10 02:36:55;;;;;;;9.57;8.63;;;;;;;14.40;100.00;97082.75;5082350;28;20065;-71
2023/06/10 02:39:22;;;;;;;9.43;8.60;;;;;;;14.37;100.00;97083.00;5082140;28;20435;-71
2023/06/10 02:41:47;;;;;;;9.43;8.52;;;;;;;14.36;100.00;97079.50;5084158;28;20027;-71
2023/06/10 02:44:12;;;;;;;11.27;10.15;;;;;;;14.40;100.00;97088.88;5082250;28;20381;-71
2023/06/10 02:46:38;;;;;;;11.10;10.25;;;;;;;14.40;100.00;97082.75;5076325;28;20493;-71
2023/06/10 02:49:03;;;;;;;11.07;9.80;;;;;;;14.40;100.00;97080.09;5079270;28;20064;-71
2023/06/10 02:51:28;;;;;;;9.90;9.10;;;;;;;14.40;100.00;97094.19;5091456;28;20028;-72
2023/06/10 02:53:54;;;;;;;12.00;9.18;;;;;;;14.38;100.00;97095.28;5077533;28;20068;-71
2023/06/10 02:56:20;;;;;;;9.00;8.10;;;;;;;14.38;100.00;97096.13;5081161;28;20033;-71
2023/06/10 02:58:45;;;;;;;8.25;7.22;;;;;;;14.36;100.00;97089.28;5091216;28;20107;-72
2023/06/10 03:01:12;;;;;;;7.93;7.32;;;;;;;14.33;100.00;97088.56;5084653;28;20047;-71
2023/06/10 03:03:40;;;;;;;8.07;7.38;;;;;;;14.27;100.00;97110.28;5075711;28;20039;-71
2023/06/10 03:06:06;;;;;;;7.68;7.00;;;;;;;14.23;100.00;97119.44;5084543;28;20511;-71
2023/06/10 03:08:31;;;;;;;7.20;6.55;;;;;;;14.23;100.00;97121.28;5096780;28;20081;-71
2023/06/10 03:10:57;;;;;;;7.30;6.80;;;;;;;14.23;100.00;97122.09;5085313;28;20028;-71
2023/06/10 03:13:23;;;;;;;9.68;6.95;;;;;;;14.22;100.00;97128.38;5087064;28;20455;-71
2023/06/10 03:15:49;;;;;;;7.80;7.18;;;;;;;14.25;100.00;97121.97;5075143;28;20442;-71
2023/06/10 03:18:14;;;;;;;7.65;6.95;;;;;;;14.23;100.00;97124.75;5074813;28;20104;-71
2023/06/10 03:20:40;;;;;;;8.95;6.50;;;;;;;14.20;100.00;97127.66;5079071;28;20012;-71
2023/06/10 03:23:06;;;;;;;9.90;7.53;;;;;;;14.18;100.00;97129.59;5074985;28;20024;-71
2023/06/10 03:25:32;;;;;;;9.93;9.02;;;;;;;14.20;100.00;97127.66;5082380;28;20163;-71
2023/06/10 03:27:57;;;;;;;11.27;10.02;;;;;;;14.17;100.00;97130.56;5086564;28;20012;-71
2023/06/10 03:30:25;;;;;;;10.27;9.13;;;;;;;14.15;100.00;97135.16;5091508;28;20024;-71
2023/06/10 03:32:51;;;;;;;10.85;7.93;;;;;;;14.10;100.00;97140.00;5092555;28;20055;-71
2023/06/10 03:35:17;;;;;;;6.30;5.80;;;;;;;14.08;100.00;97137.47;5081566;28;20461;-71
2023/06/10 03:37:42;;;;;;;5.40;4.88;;;;;;;13.96;100.00;97134.03;5088871;28;20054;-71
2023/06/10 03:40:08;;;;;;;5.65;5.15;;;;;;;13.92;100.00;97143.22;5081745;28;20046;-71
2023/06/10 03:42:34;;;;;;;5.45;5.05;;;;;;;13.85;100.00;97140.22;5082210;28;20025;-71
2023/06/10 03:45:00;;;;;;;5.70;5.20;;;;;;;13.81;100.00;97149.41;5080448;28;20027;-71
2023/06/10 03:47:26;;;;;;;5.32;4.93;;;;;;;13.73;100.00;97144.72;5082257;28;20478;-71
2023/06/10 03:49:52;;;;;;;5.20;4.80;;;;;;;13.70;100.00;97150.28;5075753;28;20485;-71
2023/06/10 03:52:18;;;;;;;4.95;4.47;;;;;;;13.77;100.00;97160.34;5083867;28;20479;-72
2023/06/10 03:54:43;;;;;;;6.18;5.57;;;;;;;13.77;100.00;97160.34;5089845;28;20099;-71
2023/06/10 03:57:09;;;;;;;6.00;5.50;;;;;;;13.79;100.00;97169.84;5077496;28;20049;-71
2023/06/10 03:59:35;;;;;;;6.05;5.65;;;;;;;13.81;100.00;97175.88;5081143;28;20024;-70
2023/06/10 04:02:01;;;;;;;6.97;6.47;;;;;;;13.74;100.00;97169.41;5079545;28;20040;-71
2023/06/10 04:04:26;;;;;;;7.03;6.53;;;;;;;13.69;100.00;97177.72;5088988;28;20028;-70
2023/06/10 04:06:52;;;;;;;7.20;6.60;;;;;;;13.69;100.00;97175.06;5097564;28;20126;-71
2023/06/10 04:09:18;;;;;;;6.82;6.28;;;;;;;13.71;100.00;97182.88;5083729;28;20094;-71
2023/06/10 04:11:43;;;;;;;8.48;7.10;;;;;;;13.74;100.00;97191.41;5088872;28;20561;-71
2023/06/10 04:14:08;;;;;;;7.85;7.07;;;;;;;13.75;100.00;97187.78;5081362;28;20111;-71
2023/06/10 04:16:34;;;;;;;7.30;6.70;;;;;;;13.78;100.00;97184.06;5074956;28;20046;-71
2023/06/10 04:19:00;;;;;;;7.32;6.68;;;;;;;13.86;100.00;97191.38;5078428;28;20059;-71
2023/06/10 04:21:26;;;;;;;8.27;6.43;;;;;;;13.93;100.00;97199.66;5086709;28;20023;-71
2023/06/10 04:23:52;;;;;;;6.80;6.30;;;;;;;13.97;100.00;97209.84;5077831;28;20047;-71
2023/06/10 04:26:17;;;;;;;7.68;6.78;;;;;;;14.01;100.00;97199.88;5086193;28;20024;-71
2023/06/10 04:28:43;;;;;;;7.18;6.57;;;;;;;14.02;100.00;97212.97;5073819;28;20021;-71
2023/06/10 04:31:09;;;;;;;7.10;6.40;;;;;;;14.04;100.00;97215.50;5073239;28;20052;-70
2023/06/10 04:33:35;;;;;;;8.07;6.07;;;;;;;14.05;100.00;97219.81;5077253;28;20460;-72
2023/06/10 04:36:01;;;;;;;6.40;5.90;;;;;;;14.08;100.00;97221.38;5087577;28;20036;-73
2023/06/10 04:38:30;;;;;;;6.10;5.50;;;;;;;14.09;100.00;97221.25;5083470;28;20040;-72
2023/06/10 04:40:56;;;;;;;6.85;5.93;;;;;;;14.11;100.00;97221.94;5087787;28;20110;-72
2023/06/10 04:43:21;;;;;;;6.53;5.93;;;;;;;14.09;100.00;97229.19;5082829;28;20500;-72
2023/06/10 04:45:47;;;;;;;6.32;5.82;;;;;;;14.06;100.00;97223.31;5088900;28;20024;-71
2023/06/10 04:48:13;;;;;;;7.32;6.65;;;;;;;14.06;100.00;97220.69;5098341;28;20048;-70
2023/06/10 04:50:38;;;;;;;7.82;7.15;;;;;;;14.11;100.00;97226.44;5079348;28;20024;-70
2023/06/10 04:53:04;;;;;;;8.45;7.57;;;;;;;14.16;100.00;97230.38;5079820;28;20107;-70
2023/06/10 04:55:29;;;;;;;8.75;8.00;;;;;;;14.20;100.00;97238.06;5082701;28;20028;-70
2023/06/10 04:57:55;;;;;;;9.73;8.85;;;;;;;14.17;100.00;97240.00;5078292;28;20077;-70
2023/06/10 05:00:21;;;;;;;10.25;9.35;;;;;;;14.23;100.00;97233.34;5074948;28;20020;-70
2023/06/10 05:02:49;;;;;;;10.95;9.73;;;;;;;14.32;100.00;97244.97;5084189;28;20039;-70
2023/06/10 05:05:16;;;;;;;11.40;10.27;;;;;;;14.48;100.00;97247.22;5073290;28;20362;-70
2023/06/10 05:07:41;;;;;;;12.95;11.77;;;;;;;14.61;100.00;97253.16;5094224;28;20493;-70
2023/06/10 05:10:07;;;;;;;12.57;11.40;;;;;;;14.74;100.00;97250.34;5080874;28;20020;-70
2023/06/10 05:12:33;;;;;;;9.55;8.63;;;;;;;14.83;100.00;97243.41;5082852;28;20030;-70
2023/06/10 05:14:58;;;;;;;9.88;8.43;;;;;;;14.97;100.00;97254.66;5079709;28;20028;-71
2023/06/10 05:17:25;;;;;;;7.63;7.07;;;;;;;15.04;100.00;97246.06;5076374;28;20028;-71
2023/06/10 05:19:50;;;;;;;7.10;6.50;;;;;;;15.17;100.00;97260.91;5085114;28;20066;-71
2023/06/10 05:22:17;;;;;;;16.88;15.38;;;;;;;15.32;100.00;97261.38;5079754;28;20020;-71
2023/06/10 05:24:43;;;;;;;17.83;16.23;;;;;;;15.50;100.00;97268.72;5092334;28;20111;-71
2023/06/10 05:27:09;;;;;;;19.63;15.85;;;;;;;15.61;100.00;97282.72;5077031;28;20060;-71
2023/06/10 05:29:35;;;;;;;14.07;12.77;;;;;;;15.71;100.00;97279.28;5077618;28;20069;-71
2023/06/10 05:32:03;;;;;;;10.32;9.25;;;;;;;15.86;100.00;97285.03;5081415;28;20497;-71
2023/06/10 05:34:31;;;;;;;9.65;8.85;;;;;;;15.99;100.00;97296.25;5080653;28;20028;-70
2023/06/10 05:36:57;;;;;;;10.70;9.50;;;;;;;16.15;100.00;97306.38;5094369;28;20015;-71
2023/06/10 05:39:22;;;;;;;11.70;10.60;;;;;;;16.22;100.00;97309.31;5080701;28;20029;-71
2023/06/10 05:41:48;;;;;;;7.85;7.05;;;;;;;16.18;100.00;97314.06;5081078;28;20021;-71
2023/06/10 05:44:13;;;;;;;16.42;15.00;;;;;;;16.20;100.00;97316.56;5084185;28;20182;-71
2023/06/10 05:46:38;;;;;;;14.70;13.15;;;;;;;16.18;100.00;97316.72;5090163;28;20103;-72
2023/06/10 05:49:04;;;;;;;12.95;11.75;;;;;;;16.31;100.00;97319.13;5081520;28;20569;-71
2023/06/10 05:51:29;;;;;;;14.82;13.27;;;;;;;16.42;100.00;97319.97;5080523;28;20024;-71
2023/06/10 05:53:55;;;;;;;15.82;14.20;;;;;;;16.43;100.00;97327.81;5086184;28;20043;-71
2023/06/10 05:56:22;;;;;;;18.95;17.17;;;;;;;16.45;100.00;97332.97;5075837;28;20477;-70
2023/06/10 05:58:48;;;;;;;14.50;13.20;;;;;;;16.51;100.00;97340.41;5086524;28;20069;-70
2023/06/10 06:01:13;;;;;;;13.98;12.68;;;;;;;16.58;100.00;97336.19;5087705;28;20028;-71
2023/06/10 06:03:39;;;;;;;12.23;11.13;;;;;;;16.74;100.00;97345.44;5077203;28;20071;-70
2023/06/10 06:06:05;;;;;;;12.45;11.25;;;;;;;16.87;100.00;97347.81;5082525;28;20143;-71
2023/06/10 06:08:30;;;;;;;10.77;9.77;;;;;;;16.96;100.00;97343.47;5094745;28;20051;-70
2023/06/10 06:10:56;;;;;;;10.20;9.25;;;;;;;17.06;100.00;97352.31;5091405;28;20031;-70
2023/06/10 06:13:21;;;;;;;11.05;8.30;;;;;;;17.13;100.00;97348.13;5079393;28;20032;-70
2023/06/10 06:15:46;;;;;;;6.30;5.70;;;;;;;17.15;100.00;97330.19;5078213;28;20024;-70
2023/06/10 06:18:12;;;;;;;5.50;5.10;;;;;;;17.20;100.00;97315.59;5084617;28;20027;-71
2023/06/10 06:20:37;;;;;;;6.32;5.82;;;;;;;17.18;100.00;97305.09;5080737;28;20100;-70
2023/06/10 06:23:03;;;;;;;5.30;4.70;;;;;;;17.27;100.00;97295.41;5080658;28;20153;-70
2023/06/10 06:25:28;;;;;;;4.88;4.53;;;;;;;17.26;100.00;97286.59;5080196;28;20445;-70
2023/06/10 06:27:54;;;;;;;5.10;4.60;;;;;;;17.34;100.00;97277.84;5085855;28;20058;-71
2023/06/10 06:30:19;;;;;;;6.75;4.82;;;;;;;17.53;100.00;97270.78;5075847;28;20100;-70
2023/06/10 06:32:45;;;;;;;5.50;5.00;;;;;;;17.95;100.00;97267.59;5082139;28;20134;-70
2023/06/10 06:35:10;;;;;;;4.70;4.40;;;;;;;18.43;100.00;97254.94;5076137;28;20052;-70
2023/06/10 06:37:36;;;;;;;5.15;4.75;;;;;;;18.74;100.00;97224.34;5085175;28;20024;-70
2023/06/10 06:40:02;;;;;;;4.75;4.45;;;;;;;18.79;100.00;97191.84;5083026;28;20038;-70
2023/06/10 06:42:27;;;;;;;6.07;4.55;;;;;;;18.76;100.00;97139.66;5076667;28;20032;-70
2023/06/10 06:44:53;;;;;;;4.85;4.40;;;;;;;18.61;100.00;97116.25;5087100;28;20058;-70
2023/06/10 06:47:19;;;;;;;5.22;4.82;;;;;;;18.56;100.00;97091.88;5090100;28;20100;-70
2023/06/10 06:49:46;;;;;;;5.00;4.68;;;;;;;18.58;100.00;97073.06;5095828;28;20482;-70
2023/06/10 06:52:13;;;;;;;5.55;5.15;;;;;;;18.54;100.00;97058.34;5081599;28;20028;-70
2023/06/10 06:54:38;;;;;;;5.43;5.00;;;;;;;18.54;100.00;97039.69;5084315;28;20084;-70
2023/06/10 06:57:03;;;;;;;5.82;5.22;;;;;;;18.52;100.00;97018.53;5075693;28;20461;-71
2023/06/10 06:59:29;;;;;;;9.55;8.48;;;;;;;18.77;100.00;97029.31;5075494;28;20374;-71
2023/06/10 07:01:54;;;;;;;9.65;8.88;;;;;;;18.76;100.00;97027.63;5080510;28;20546;-71
2023/06/10 07:04:21;;;;;;;9.68;8.82;;;;;;;18.76;100.00;97033.78;5091207;28;20031;-71
2023/06/10 07:06:50;;;;;;;9.55;8.75;;;;;;;19.17;100.00;97034.94;5088122;28;20074;-71
2023/06/10 07:09:16;;;;;;;10.70;8.90;;;;;;;19.84;100.00;97030.50;5087405;28;20025;-71
2023/06/10 07:11:41;;;;;;;9.05;8.35;;;;;;;20.23;100.00;97012.94;5083658;28;20515;-71
2023/06/10 07:14:07;;;;;;;11.95;8.75;;;;;;;20.56;100.00;96972.72;5082930;28;20130;-71
2023/06/10 07:16:32;;;;;;;8.73;7.95;;;;;;;20.67;100.00;96678.03;5081652;28;20039;-71
2023/06/10 07:18:58;;;;;;;7.55;6.68;;;;;;;21.08;100.00;96633.97;5082398;28;20028;-71
2023/06/10 07:21:23;;;;;;;7.15;6.55;;;;;;;21.49;100.00;96578.22;5090715;28;20102;-71
2023/06/10 07:23:49;;;;;;;6.55;5.95;;;;;;;21.85;100.00;96545.25;5083310;28;20027;-71
2023/06/10 07:26:15;;;;;;;6.32;5.82;;;;;;;21.81;100.00;96522.53;5083792;28;20033;-71
2023/06/10 07:28:41;;;;;;;6.20;5.40;;;;;;;21.32;100.00;96507.00;5086597;28;20031;-71
2023/06/10 07:31:07;;;;;;;6.95;5.40;;;;;;;20.94;100.00;96503.69;5076377;28;20028;-71
2023/06/10 07:33:33;;;;;;;6.15;5.55;;;;;;;19.83;100.00;96521.19;5074594;28;20033;-71
2023/06/10 07:35:58;;;;;;;7.57;5.60;;;;;;;19.40;100.00;96570.56;5080919;28;20070;-71
2023/06/10 07:38:25;;;;;;;6.65;6.13;;;;;;;19.08;100.00;96612.44;5091475;28;20024;-72
2023/06/10 07:40:51;;;;;;;8.07;6.93;;;;;;;19.49;100.00;96669.31;5075924;28;20465;-71
2023/06/10 07:43:16;;;;;;;7.30;6.68;;;;;;;20.14;100.00;96676.16;5083546;28;20050;-71
2023/06/10 07:45:42;;;;;;;6.45;5.93;;;;;;;20.23;100.00;96676.91;5094548;28;20047;-72
2023/06/10 07:48:08;;;;;;;7.25;6.00;;;;;;;20.57;100.00;96678.28;5076782;28;20021;-72
2023/06/10 07:50:34;;;;;;;6.53;5.93;;;;;;;21.19;100.00;96670.16;5085610;28;20024;-73
2023/06/10 07:52:59;;;;;;;6.07;5.60;;;;;;;21.20;100.00;96625.50;5090614;28;20028;-72
2023/06/10 07:55:28;;;;;;;5.32;4.93;;;;;;;21.52;100.00;96592.09;5075760;28;20037;-71
2023/06/10 07:57:54;;;;;;;6.47;4.80;;;;;;;21.42;100.00;96575.47;5079581;28;20021;-72
2023/06/10 08:00:20;;;;;;;6.68;5.20;;;;;;;21.35;100.00;96531.72;5088904;28;20443;-71
2023/06/10 08:02:46;;;;;;;4.63;4.22;;;;;;;21.16;100.00;96510.75;5078459;28;20082;-71
2023/06/10 08:05:12;;;;;;;5.35;4.95;;;;;;;21.30;100.00;96518.91;5079161;28;20047;-71
2023/06/10 08:07:37;;;;;;;4.68;4.28;;;;;;;21.18;100.00;96492.63;5084725;28;20024;-71
2023/06/10 08:10:03;;;;;;;7.47;3.85;;;;;;;21.06;100.00;96453.97;5081773;28;20311;-72
2023/06/10 08:12:29;;;;;;;5.18;4.63;;;;;;;21.47;100.00;96453.34;5084288;28;20032;-70
2023/06/10 08:14:54;;;;;;;5.45;4.03;;;;;;;22.44;100.00;96452.81;5077934;28;20020;-72
2023/06/10 08:17:20;;;;;;;3.88;3.58;;;;;;;22.85;100.00;96391.28;5086737;28;20397;-73
2023/06/10 08:19:46;;;;;;;4.05;3.75;;;;;;;23.84;100.00;96347.75;5073246;28;20039;-70
2023/06/10 08:22:11;;;;;;;4.13;3.72;;;;;;;24.42;100.00;96324.59;5075685;28;20024;-72
2023/06/10 08:24:37;;;;;;;3.47;3.17;;;;;;;24.71;100.00;96260.47;5084366;28;20112;-72
2023/06/10 08:27:03;;;;;;;3.72;3.42;;;;;;;24.95;100.00;96242.69;5082789;28;20122;-72
2023/06/10 08:29:31;;;;;;;4.05;3.75;;;;;;;24.84;100.00;96217.31;5087796;28;20024;-71
2023/06/10 08:31:56;;;;;;;4.43;4.03;;;;;;;24.76;100.00;96222.97;5081100;28;20025;-72
2023/06/10 08:34:21;;;;;;;4.55;4.18;;;;;;;24.03;100.00;96238.50;5085769;28;20039;-71
2023/06/10 08:36:47;;;;;;;5.38;4.13;;;;;;;23.97;100.00;96295.78;5091092;28;20110;-72
2023/06/10 08:39:12;;;;;;;4.18;3.88;;;;;;;24.76;100.00;96279.50;5084131;28;20027;-72
2023/06/10 08:41:44;;;;;;;3.70;3.40;;;;;;;25.58;100.00;96231.97;5087148;28;20019;-72
2023/06/10 08:44:29;;;;;;;4.80;3.58;;;;;;;25.80;100.00;96161.41;5082115;28;20351;-71
2023/06/10 08:47:15;;;;;;;4.68;3.55;;;;;;;25.89;100.00;96103.41;5085059;28;20028;-72
2023/06/10 08:49:43;;;;;;;5.22;2.90;;;;;;;25.85;100.00;96081.47;5089809;28;20026;-72
2023/06/10 08:52:14;;;;;;;3.78;2.75;;;;;;;25.62;100.00;96113.72;5082272;28;20024;-73
2023/06/10 08:54:43;;;;;;;3.08;2.63;;;;;;;26.24;100.00;96070.34;5080699;28;20020;-72
2023/06/10 08:57:09;;;;;;;2.95;2.80;;;;;;;26.42;100.00;96082.09;5077144;28;20025;-72
2023/06/10 08:59:34;;;;;;;3.60;3.30;;;;;;;26.49;100.00;96127.84;5082462;28;20028;-73
2023/06/10 09:02:02;;;;;;;3.22;2.90;;;;;;;27.34;100.00;96109.53;5072743;28;20477;-72
2023/06/10 09:04:28;;;;;;;3.42;3.13;;;;;;;27.49;100.00;96038.72;5085823;28;20032;-72
2023/06/10 09:06:55;;;;;;;3.67;3.30;;;;;;;27.09;100.00;96029.59;5087096;28;20480;-72
2023/06/10 09:09:22;;;;;;;3.28;2.75;;;;;;;26.07;100.00;96040.47;5080662;28;20092;-74
2023/06/10 09:11:47;;;;;;;3.25;2.97;;;;;;;26.29;100.00;96132.53;5083241;28;20488;-71
2023/06/10 09:14:13;;;;;;;3.88;3.58;;;;;;;26.51;100.00;96129.28;5091531;28;20038;-72
2023/06/10 09:16:40;;;;;;;4.25;3.90;;;;;;;24.83;100.00;96113.34;5088895;28;20027;-69
2023/06/10 09:19:07;;;;;;;4.10;3.70;;;;;;;24.13;100.00;96185.09;5080571;28;20480;-72
2023/06/10 09:21:34;;;;;;;3.92;3.63;;;;;;;23.36;100.00;96238.69;5087677;28;20031;-75
2023/06/10 09:24:00;;;;;;;3.90;3.60;;;;;;;23.31;100.00;96269.69;5080910;28;20052;-72
2023/06/10 09:26:31;;;;;;;4.32;3.45;;;;;;;22.79;100.00;96298.19;5086441;28;20198;-73
2023/06/10 09:29:08;;;;;;;5.28;3.92;;;;;;;22.38;100.00;96334.78;5082503;28;20044;-70
2023/06/10 09:31:35;;;;;;;6.15;4.20;;;;;;;22.29;100.00;96345.69;5092537;28;20026;-70
2023/06/10 09:34:11;;;;;;;4.82;4.43;;;;;;;22.43;100.00;96368.00;5084154;28;20016;-71
2023/06/10 09:36:38;;;;;;;4.90;4.05;;;;;;;22.44;100.00;96360.81;5086859;28;20024;-71
2023/06/10 09:39:03;;;;;;;5.28;4.22;;;;;;;22.22;100.00;96363.59;5086841;28;20182;-72
2023/06/10 09:41:34;;;;;;;5.75;4.32;;;;;;;22.51;100.00;96399.25;5086458;28;20447;-69
2023/06/10 09:44:00;;;;;;;4.68;4.28;;;;;;;22.21;100.00;96379.88;5075251;28;20025;-68
2023/06/10 09:46:32;;;;;;;4.95;4.45;;;;;;;22.19;100.00;96396.16;5085349;28;20068;-69
2023/06/10 09:48:58;;;;;;;3.20;2.92;;;;;;;22.04;100.00;96382.88;5086593;28;20439;-68
2023/06/10 09:51:23;;;;;;;3.75;2.92;;;;;;;22.07;100.00;96366.41;5081178;28;20403;-69
2023/06/10 09:53:51;;;;;;;5.18;2.78;;;;;;;21.69;100.00;96340.84;5093622;28;20035;-68
2023/06/10 09:56:16;;;;;;;3.53;2.90;;;;;;;21.75;100.00;96340.03;5088237;27;20028;-69
2023/06/10 09:58:43;;;;;;;3.20;3.00;;;;;;;21.83;100.00;96344.41;5080416;28;20032;-69
2023/06/10 10:01:14;;;;;;;5.38;3.50;;;;;;;21.88;100.00;96343.84;5089460;28;20045;-68
2023/06/10 10:03:46;;;;;;;3.10;2.90;;;;;;;22.04;100.00;96331.94;5079475;28;20016;-68
2023/06/10 10:06:14;;;;;;;5.45;3.45;;;;;;;22.10;100.00;96322.28;5091919;28;20588;-68
2023/06/10 10:08:39;;;;;;;4.00;2.83;;;;;;;22.43;100.00;96324.25;5078292;28;20032;-68
2023/06/10 10:11:05;;;;;;;3.60;3.17;;;;;;;22.94;100.00;96308.72;5084758;28;20032;-69
2023/06/10 10:13:34;;;;;;;3.75;3.38;;;;;;;23.12;100.00;96289.31;5078609;28;20025;-69
2023/06/10 10:16:03;;;;;;;6.85;3.13;;;;;;;22.51;100.00;96275.84;5083136;28;20088;-69
2023/06/10 10:18:31;;;;;;;3.45;3.15;;;;;;;22.75;100.00;96292.38;5079868;28;20039;-67
2023/06/10 10:21:01;;;;;;;3.70;3.22;;;;;;;22.40;100.00;96298.69;5075662;28;20036;-68
2023/06/10 10:23:40;;;;;;;8.20;3.42;;;;;;;22.25;100.00;96330.19;5086129;28;20480;-67
2023/06/10 10:26:10;;;;;;;4.38;3.17;;;;;;;22.63;100.00;96344.97;5081684;28;20082;-67
2023/06/10 10:28:47;;;;;;;3.95;3.50;;;;;;;22.54;100.00;96347.84;5082984;28;20152;-67
2023/06/10 10:31:18;;;;;;;4.40;3.60;;;;;;;22.29;100.00;96337.63;5085971;28;20024;-68
2023/06/10 10:33:43;;;;;;;3.70;3.40;;;;;;;22.08;100.00;96364.56;5080791;28;20485;-68
2023/06/10 10:36:09;;;;;;;3.80;3.35;;;;;;;22.24;100.00;96377.66;5077919;28;20042;-68
2023/06/10 10:38:35;;;;;;;4.00;3.70;;;;;;;22.33;100.00;96346.13;5094438;28;20024;-68
2023/06/10 10:41:01;;;;;;;3.90;3.20;;;;;;;22.25;100.00;96327.50;5087751;28;20023;-68
2023/06/10 10:43:28;;;;;;;3.33;2.95;;;;;;;21.99;100.00;96332.53;5079601;28;20032;-68
2023/06/10 10:46:01;;;;;;;4.15;3.28;;;;;;;21.86;100.00;96337.84;5077058;28;20161;-68
2023/06/10 10:48:33;;;;;;;3.53;2.67;;;;;;;21.90;100.00;96333.75;5088267;28;20008;-66
2023/06/10 10:50:58;;;;;;;3.00;2.80;;;;;;;22.20;100.00;96346.06;5086494;28;20034;-71
2023/06/10 10:53:25;;;;;;;3.13;2.92;;;;;;;22.14;100.00;96320.84;5081407;28;20024;-67
2023/06/10 10:56:07;;;;;;;3.80;3.40;;;;;;;21.92;100.00;96331.69;5087240;28;20587;-72
2023/06/10 10:58:33;;;;;;;3.95;3.35;;;;;;;22.07;100.00;96362.91;5075237;28;20046;-72
2023/06/10 11:00:58;;;;;;;3.72;2.70;;;;;;;22.30;100.00;96333.94;5079952;28;20024;-72
2023/06/10 11:03:30;;;;;;;4.03;2.97;;;;;;;22.49;100.00;96319.97;5079639;28;20019;-73
2023/06/10 11:05:57;;;;;;;5.63;3.03;;;;;;;23.14;100.00;96349.84;5080729;28;20047;-74
2023/06/10 11:08:29;;;;;;;3.08;2.78;;;;;;;23.60;100.00;96250.63;5081555;28;20103;-73
2023/06/10 11:10:54;;;;;;;4.35;3.95;;;;;;;24.57;100.00;96228.25;5087762;28;20047;-73
2023/06/10 11:13:22;;;;;;;4.13;3.08;;;;;;;24.94;100.00;96194.44;5081215;28;20520;-73
2023/06/10 11:15:49;;;;;;;4.88;3.17;;;;;;;25.42;100.00;96145.25;5079964;28;20044;-74
2023/06/10 11:18:28;;;;;;;4.50;3.55;;;;;;;25.67;100.00;96122.78;5086838;28;20102;-74
2023/06/10 11:20:59;;;;;;;3.60;3.30;;;;;;;25.52;100.00;96103.50;5080016;28;20032;-74
2023/06/10 11:23:24;;;;;;;3.30;3.00;;;;;;;25.04;100.00;96076.25;5084656;28;20250;-73